Time;durP1;ratioP1;P1;durP2;ratioP2;P2;SDS_P1;SDS_P2;PMS_P1;PMS_P2;Temp;Humidity;BMP_temperature;BMP_pressure;BME280_temperature;BME280_humidity;BME280_pressure;Samples;Min_cycle;Max_cycle;Signal;HPM_P1;HPM_P2
2021/05/17 00:02:22;;;;;;;14.20;3.45;;;;;;;;;;5055384;28;20040;-66
2021/05/17 00:04:48;;;;;;;333.90;14.18;;;;;;;;;;5055107;28;20033;-66
2021/05/17 00:07:14;;;;;;;336.92;16.40;;;;;;;;;;5055198;28;20013;-66
2021/05/17 00:09:39;;;;;;;196.77;9.95;;;;;;;;;;5055053;28;20435;-66
2021/05/17 00:12:05;;;;;;;13.30;3.50;;;;;;;;;;5055076;28;20532;-66
2021/05/17 00:14:31;;;;;;;15.70;3.42;;;;;;;;;;5054840;28;20466;-66
2021/05/17 00:16:56;;;;;;;33.28;5.15;;;;;;;;;;5054912;28;20044;-66
2021/05/17 00:19:22;;;;;;;103.43;7.82;;;;;;;;;;5054777;28;20033;-66
2021/05/17 00:21:48;;;;;;;19.90;4.15;;;;;;;;;;5055102;28;20108;-66
2021/05/17 00:24:14;;;;;;;9.32;3.47;;;;;;;;;;5054932;28;20029;-66
2021/05/17 00:26:40;;;;;;;12.32;3.65;;;;;;;;;;5054614;28;20481;-66
2021/05/17 00:29:06;;;;;;;13.98;3.83;;;;;;;;;;5054733;28;20075;-66
2021/05/17 00:31:32;;;;;;;12.57;3.72;;;;;;;;;;5051816;28;20124;-66
2021/05/17 00:33:57;;;;;;;20.30;4.43;;;;;;;;;;5052755;28;20532;-66
2021/05/17 00:36:23;;;;;;;8.80;3.30;;;;;;;;;;5054415;28;20465;-66
2021/05/17 00:38:48;;;;;;;46.97;6.25;;;;;;;;;;5054305;28;20032;-66
2021/05/17 00:41:14;;;;;;;125.47;8.60;;;;;;;;;;5054053;28;20416;-66
2021/05/17 00:43:39;;;;;;;28.67;4.32;;;;;;;;;;5054404;28;20036;-66
2021/05/17 00:46:05;;;;;;;42.55;6.28;;;;;;;;;;5054303;28;20468;-66
2021/05/17 00:48:31;;;;;;;15.07;3.60;;;;;;;;;;5054458;28;20032;-65
2021/05/17 00:50:57;;;;;;;14.23;3.50;;;;;;;;;;5054033;28;20469;-65
2021/05/17 00:53:22;;;;;;;18.40;3.55;;;;;;;;;;5054397;28;20071;-66
2021/05/17 00:55:48;;;;;;;6.50;2.95;;;;;;;;;;5054337;28;20033;-66
2021/05/17 00:58:14;;;;;;;13.40;3.65;;;;;;;;;;5054161;28;20019;-66
2021/05/17 01:00:39;;;;;;;10.57;3.00;;;;;;;;;;5054247;28;20025;-66
2021/05/17 01:03:05;;;;;;;13.23;3.50;;;;;;;;;;5054218;28;20025;-66
2021/05/17 01:05:30;;;;;;;24.15;4.40;;;;;;;;;;5054020;28;20074;-66
2021/05/17 01:07:56;;;;;;;11.57;3.38;;;;;;;;;;5054148;28;20021;-66
2021/05/17 01:10:21;;;;;;;12.02;3.00;;;;;;;;;;5053865;28;20033;-66
2021/05/17 01:12:48;;;;;;;16.73;3.88;;;;;;;;;;5054094;28;20464;-66
2021/05/17 01:15:14;;;;;;;12.85;2.90;;;;;;;;;;5053794;28;20432;-66
2021/05/17 01:17:40;;;;;;;114.68;7.85;;;;;;;;;;5054009;28;20036;-66
2021/05/17 01:20:09;;;;;;;62.03;5.38;;;;;;;;;;5053704;28;20017;-66
2021/05/17 01:22:39;;;;;;;19.08;4.10;;;;;;;;;;5053614;28;20085;-66
2021/05/17 01:25:05;;;;;;;17.95;3.92;;;;;;;;;;5053626;28;20098;-66
2021/05/17 01:27:31;;;;;;;13.27;3.50;;;;;;;;;;5053732;28;20482;-66
2021/05/17 01:29:56;;;;;;;11.55;3.85;;;;;;;;;;5053591;28;20043;-66
2021/05/17 01:32:22;;;;;;;15.15;3.70;;;;;;;;;;5053716;28;20051;-66
2021/05/17 01:34:47;;;;;;;10.32;3.13;;;;;;;;;;5053674;28;20024;-66
2021/05/17 01:37:13;;;;;;;11.93;3.80;;;;;;;;;;5052403;28;20037;-66
2021/05/17 01:39:39;;;;;;;10.23;3.67;;;;;;;;;;5053443;28;20438;-66
2021/05/17 01:42:04;;;;;;;7.15;3.53;;;;;;;;;;5053255;28;20052;-66
2021/05/17 01:44:36;;;;;;;10.13;3.33;;;;;;;;;;5053601;28;20033;-66
2021/05/17 01:47:01;;;;;;;8.02;3.00;;;;;;;;;;5053361;28;20068;-66
2021/05/17 01:49:28;;;;;;;11.85;3.50;;;;;;;;;;5053339;28;20432;-66
2021/05/17 01:51:53;;;;;;;11.43;3.55;;;;;;;;;;5053040;28;20697;-66
2021/05/17 01:54:19;;;;;;;8.25;3.22;;;;;;;;;;5053277;28;20033;-66
2021/05/17 01:56:45;;;;;;;9.95;3.50;;;;;;;;;;5052944;28;20461;-66
2021/05/17 01:59:11;;;;;;;77.00;5.18;;;;;;;;;;5052879;28;20043;-66
2021/05/17 02:01:36;;;;;;;175.80;8.27;;;;;;;;;;5052522;28;20047;-66
2021/05/17 02:04:03;;;;;;;172.20;9.75;;;;;;;;;;5053112;28;20052;-66
2021/05/17 02:06:28;;;;;;;23.27;4.28;;;;;;;;;;5052976;28;20059;-66
2021/05/17 02:08:54;;;;;;;339.92;11.95;;;;;;;;;;5053140;28;20421;-66
2021/05/17 02:11:20;;;;;;;258.05;12.13;;;;;;;;;;5052639;28;20028;-66
2021/05/17 02:13:46;;;;;;;22.60;4.32;;;;;;;;;;5053095;28;20029;-66
2021/05/17 02:16:13;;;;;;;6.97;3.08;;;;;;;;;;5052899;28;20120;-66
2021/05/17 02:18:42;;;;;;;6.97;2.92;;;;;;;;;;5053003;28;20017;-66
2021/05/17 02:21:07;;;;;;;18.05;3.83;;;;;;;;;;5052821;28;20068;-66
2021/05/17 02:23:33;;;;;;;8.43;3.53;;;;;;;;;;5052992;28;20083;-66
2021/05/17 02:25:59;;;;;;;22.90;4.25;;;;;;;;;;5052749;28;20021;-66
2021/05/17 02:28:25;;;;;;;14.25;3.55;;;;;;;;;;5052924;28;20029;-66
2021/05/17 02:30:50;;;;;;;6.90;3.30;;;;;;;;;;5052716;28;20488;-66
2021/05/17 02:33:16;;;;;;;11.10;2.83;;;;;;;;;;5051343;28;20021;-66
2021/05/17 02:35:41;;;;;;;21.92;4.13;;;;;;;;;;5052746;28;20025;-66
2021/05/17 02:38:08;;;;;;;10.70;3.22;;;;;;;;;;5052875;28;20029;-66
2021/05/17 02:40:34;;;;;;;11.70;3.47;;;;;;;;;;5052589;28;20048;-66
2021/05/17 02:43:00;;;;;;;11.20;3.20;;;;;;;;;;5052724;28;20033;-66
2021/05/17 02:45:26;;;;;;;16.63;3.30;;;;;;;;;;5052361;28;20416;-66
2021/05/17 02:47:52;;;;;;;7.85;3.30;;;;;;;;;;5052849;28;20031;-66
2021/05/17 02:50:17;;;;;;;18.20;3.72;;;;;;;;;;5052472;28;20041;-66
2021/05/17 02:52:44;;;;;;;13.75;3.30;;;;;;;;;;5052757;28;20029;-66
2021/05/17 02:55:13;;;;;;;10.20;3.30;;;;;;;;;;5052259;28;20523;-66
2021/05/17 02:57:39;;;;;;;21.38;4.00;;;;;;;;;;5056664;28;20082;-66
2021/05/17 03:00:09;;;;;;;11.65;3.35;;;;;;;;;;5056257;28;20037;-66
2021/05/17 03:02:39;;;;;;;18.80;3.65;;;;;;;;;;5056455;28;20052;-66
2021/05/17 03:05:05;;;;;;;11.65;3.33;;;;;;;;;;5056400;28;20094;-66
2021/05/17 03:07:35;;;;;;;7.53;2.72;;;;;;;;;;5056269;28;20029;-66
2021/05/17 03:10:02;;;;;;;8.38;3.72;;;;;;;;;;5056254;28;20069;-66
2021/05/17 03:12:28;;;;;;;8.52;3.25;;;;;;;;;;5056264;28;20033;-66
2021/05/17 03:14:54;;;;;;;20.77;4.80;;;;;;;;;;5056266;28;20033;-66
2021/05/17 03:17:19;;;;;;;16.23;3.97;;;;;;;;;;5056074;28;20056;-66
2021/05/17 03:19:45;;;;;;;17.85;3.78;;;;;;;;;;5056195;28;20029;-66
2021/05/17 03:22:11;;;;;;;12.95;3.50;;;;;;;;;;5055956;28;20351;-66
2021/05/17 03:24:37;;;;;;;19.48;4.00;;;;;;;;;;5056201;28;20378;-66
2021/05/17 03:27:13;;;;;;;22.63;4.68;;;;;;;;;;5055873;28;20037;-66
2021/05/17 03:29:38;;;;;;;15.70;3.85;;;;;;;;;;5055918;28;20041;-66
2021/05/17 03:32:03;;;;;;;15.73;3.60;;;;;;;;;;5055781;28;20040;-66
2021/05/17 03:34:28;;;;;;;17.40;4.20;;;;;;;;;;5055943;28;20029;-66
2021/05/17 03:36:54;;;;;;;11.88;3.60;;;;;;;;;;5056021;28;20032;-66
2021/05/17 03:39:19;;;;;;;12.60;3.63;;;;;;;;;;5055120;28;20782;-66
2021/05/17 03:41:44;;;;;;;19.25;3.63;;;;;;;;;;5055678;28;20049;-66
2021/05/17 03:44:10;;;;;;;14.60;3.45;;;;;;;;;;5055601;28;20017;-66
2021/05/17 03:46:35;;;;;;;373.23;15.65;;;;;;;;;;5055911;28;20461;-66
2021/05/17 03:49:00;;;;;;;349.75;11.57;;;;;;;;;;5054260;28;20048;-66
2021/05/17 03:51:26;;;;;;;24.45;5.10;;;;;;;;;;5055659;28;20024;-66
2021/05/17 03:53:51;;;;;;;43.67;5.07;;;;;;;;;;5055913;28;20029;-66
2021/05/17 03:56:16;;;;;;;13.30;3.83;;;;;;;;;;5055271;28;20025;-66
2021/05/17 03:58:42;;;;;;;9.25;3.25;;;;;;;;;;5055544;28;20017;-66
2021/05/17 04:01:07;;;;;;;11.90;3.25;;;;;;;;;;5055237;28;20029;-66
2021/05/17 04:03:32;;;;;;;13.32;3.95;;;;;;;;;;5055422;28;20033;-66
2021/05/17 04:13:50;;;;;;;76.65;7.40;;;;;;;;;;5055011;28;20040;-66
2021/05/17 04:16:15;;;;;;;35.78;5.45;;;;;;;;;;5054911;28;20037;-66
2021/05/17 04:18:42;;;;;;;17.17;4.80;;;;;;;;;;5055172;28;20450;-66
2021/05/17 04:21:07;;;;;;;29.88;5.38;;;;;;;;;;5054897;28;20020;-66
2021/05/17 04:23:32;;;;;;;30.90;6.20;;;;;;;;;;5055324;28;20454;-66
2021/05/17 04:25:58;;;;;;;12.60;3.97;;;;;;;;;;5054894;28;20454;-66
2021/05/17 04:28:23;;;;;;;31.40;5.10;;;;;;;;;;5054884;28;20021;-66
2021/05/17 04:30:48;;;;;;;160.27;7.88;;;;;;;;;;5054688;28;20424;-66
2021/05/17 04:33:14;;;;;;;131.68;6.82;;;;;;;;;;5054452;28;20459;-66
2021/05/17 04:35:39;;;;;;;18.08;4.18;;;;;;;;;;5054685;28;20070;-66
2021/05/17 04:38:04;;;;;;;15.85;4.55;;;;;;;;;;5054749;28;20036;-66
2021/05/17 04:40:30;;;;;;;16.00;4.18;;;;;;;;;;5054201;28;20496;-66
2021/05/17 04:46:25;;;;;;;11.90;4.00;;;;;;;;;;5054299;28;20064;-66
2021/05/17 04:48:50;;;;;;;10.73;4.10;;;;;;;;;;5054625;28;20065;-66
2021/05/17 04:51:20;;;;;;;8.18;3.35;;;;;;;;;;5054272;28;20031;-66
2021/05/17 04:53:46;;;;;;;12.93;4.20;;;;;;;;;;5054242;28;20451;-66
2021/05/17 04:56:11;;;;;;;14.05;4.53;;;;;;;;;;5054473;28;20075;-66
2021/05/17 04:58:36;;;;;;;11.80;3.80;;;;;;;;;;5054373;28;20083;-66
2021/05/17 05:01:02;;;;;;;22.15;4.47;;;;;;;;;;5054225;28;20023;-66
2021/05/17 05:03:28;;;;;;;14.38;4.07;;;;;;;;;;5054270;28;20105;-66
2021/05/17 05:05:53;;;;;;;13.77;3.80;;;;;;;;;;5054146;28;20032;-66
2021/05/17 05:08:18;;;;;;;350.52;14.73;;;;;;;;;;5054145;28;20047;-66
2021/05/17 05:10:43;;;;;;;95.07;5.90;;;;;;;;;;5053864;28;20047;-66
2021/05/17 05:13:09;;;;;;;89.65;6.70;;;;;;;;;;5054278;28;20066;-66
2021/05/17 05:15:34;;;;;;;11.98;2.83;;;;;;;;;;5054241;28;20025;-66
2021/05/17 05:17:59;;;;;;;9.98;2.95;;;;;;;;;;5053841;28;20028;-66
2021/05/17 05:20:27;;;;;;;10.18;2.75;;;;;;;;;;5053993;28;20028;-66
2021/05/17 05:22:52;;;;;;;6.50;2.70;;;;;;;;;;5053862;28;20067;-66
2021/05/17 05:25:19;;;;;;;7.63;2.58;;;;;;;;;;5053796;28;20420;-66
2021/05/17 05:27:50;;;;;;;15.93;3.00;;;;;;;;;;5053611;28;20351;-66
2021/05/17 05:30:29;;;;;;;14.45;3.28;;;;;;;;;;5053692;28;20091;-66
2021/05/17 05:33:15;;;;;;;14.38;4.53;;;;;;;;;;5053309;28;20496;-66
2021/05/17 05:35:40;;;;;;;10.60;2.40;;;;;;;;;;5052969;28;20083;-66
2021/05/17 05:38:05;;;;;;;13.70;2.17;;;;;;;;;;5053638;28;20029;-66
2021/05/17 05:40:30;;;;;;;9.32;2.05;;;;;;;;;;5053101;28;20044;-66
2021/05/17 05:42:56;;;;;;;10.77;2.40;;;;;;;;;;5053221;28;20028;-66
2021/05/17 05:45:21;;;;;;;8.05;2.20;;;;;;;;;;5053391;28;20032;-66
2021/05/17 05:47:47;;;;;;;7.15;2.17;;;;;;;;;;5053381;28;20031;-66
2021/05/17 05:50:12;;;;;;;9.63;2.83;;;;;;;;;;5053387;28;20029;-66
2021/05/17 05:52:38;;;;;;;5.30;2.65;;;;;;;;;;5053232;28;20056;-66
2021/05/17 05:55:05;;;;;;;6.38;2.33;;;;;;;;;;5053317;28;20449;-66
2021/05/17 05:57:36;;;;;;;9.85;2.47;;;;;;;;;;5052868;28;20036;-67
2021/05/17 06:00:03;;;;;;;7.38;2.13;;;;;;;;;;5052169;28;20044;-66
2021/05/17 06:02:28;;;;;;;6.63;2.40;;;;;;;;;;5052977;28;20021;-66
2021/05/17 06:04:54;;;;;;;9.75;2.53;;;;;;;;;;5052992;28;20036;-66
2021/05/17 06:07:19;;;;;;;6.40;2.20;;;;;;;;;;5051879;28;20025;-66
2021/05/17 06:09:45;;;;;;;6.25;2.47;;;;;;;;;;5052146;28;20033;-66
2021/05/17 06:12:11;;;;;;;8.40;2.80;;;;;;;;;;5052514;28;20461;-66
2021/05/17 06:14:36;;;;;;;5.63;2.05;;;;;;;;;;5053039;28;20078;-66
2021/05/17 06:17:02;;;;;;;3.28;1.73;;;;;;;;;;5053014;28;20047;-66
2021/05/17 06:19:27;;;;;;;6.75;1.75;;;;;;;;;;5053306;28;20029;-66
2021/05/17 06:21:52;;;;;;;8.02;1.60;;;;;;;;;;5052625;28;20047;-64
2021/05/17 06:24:19;;;;;;;9.18;1.80;;;;;;;;;;5052994;28;20067;-64
2021/05/17 06:26:45;;;;;;;4.93;1.80;;;;;;;;;;5052881;28;20089;-64
2021/05/17 06:29:10;;;;;;;6.90;2.00;;;;;;;;;;5052906;28;20701;-66
2021/05/17 06:31:36;;;;;;;8.63;1.85;;;;;;;;;;5055145;28;20025;-67
2021/05/17 06:34:02;;;;;;;3.60;1.23;;;;;;;;;;5057215;28;20028;-66
2021/05/17 06:36:27;;;;;;;6.68;1.65;;;;;;;;;;5056769;28;20112;-66
2021/05/17 06:38:53;;;;;;;6.43;1.60;;;;;;;;;;5057044;28;20480;-66
2021/05/17 06:41:19;;;;;;;3.42;1.50;;;;;;;;;;5056068;28;20486;-66
2021/05/17 06:43:44;;;;;;;4.07;1.42;;;;;;;;;;5056040;28;20055;-66
2021/05/17 06:46:10;;;;;;;6.00;1.80;;;;;;;;;;5056134;28;20021;-67
2021/05/17 06:48:42;;;;;;;10.70;2.20;;;;;;;;;;5056308;28;20031;-66
2021/05/17 06:51:11;;;;;;;7.25;1.67;;;;;;;;;;5056567;28;20239;-67
2021/05/17 06:53:36;;;;;;;10.63;1.83;;;;;;;;;;5056283;28;20056;-66
2021/05/17 06:56:04;;;;;;;5.22;1.48;;;;;;;;;;5056054;28;20091;-67
2021/05/17 06:58:34;;;;;;;4.93;1.20;;;;;;;;;;5055431;28;20052;-66
2021/05/17 07:01:00;;;;;;;6.85;1.25;;;;;;;;;;5056297;28;20024;-65
2021/05/17 07:03:25;;;;;;;6.07;1.60;;;;;;;;;;5055307;28;20452;-65
2021/05/17 07:05:53;;;;;;;5.13;1.60;;;;;;;;;;5055673;28;20028;-64
2021/05/17 07:13:36;;;;;;;4.75;1.77;;;;;;;;;;5046972;28;20033;-64
2021/05/17 07:16:01;;;;;;;5.10;1.65;;;;;;;;;;5056033;28;20028;-65
2021/05/17 07:18:26;;;;;;;7.32;1.63;;;;;;;;;;5055772;28;20115;-65
2021/05/17 07:26:02;;;;;;;3.17;1.35;;;;;;;;;;5055268;28;20068;-65
2021/05/17 07:28:28;;;;;;;6.28;1.38;;;;;;;;;;5050636;28;20037;-67
2021/05/17 07:30:54;;;;;;;7.18;1.40;;;;;;;;;;5053047;28;20041;-67
2021/05/17 07:33:19;;;;;;;5.70;1.67;;;;;;;;;;5053149;28;20105;-67
2021/05/17 07:35:45;;;;;;;8.88;1.80;;;;;;;;;;5052952;28;20119;-67
2021/05/17 07:38:10;;;;;;;4.40;1.40;;;;;;;;;;5053527;28;20025;-67
2021/05/17 07:40:36;;;;;;;6.07;2.10;;;;;;;;;;5052876;28;20092;-67
2021/05/17 07:43:02;;;;;;;9.18;1.50;;;;;;;;;;5052345;28;20033;-68
2021/05/17 07:45:27;;;;;;;5.43;1.30;;;;;;;;;;5052566;28;20039;-67
2021/05/17 07:47:52;;;;;;;5.55;2.00;;;;;;;;;;5052300;28;20031;-68
2021/05/17 07:50:18;;;;;;;4.72;1.60;;;;;;;;;;5052399;28;20144;-67
2021/05/17 07:52:43;;;;;;;8.48;1.50;;;;;;;;;;5052646;28;20028;-67
2021/05/17 07:55:09;;;;;;;6.82;1.52;;;;;;;;;;5052524;28;20454;-67
2021/05/17 07:57:34;;;;;;;7.80;1.75;;;;;;;;;;5052563;28;20144;-67
2021/05/17 08:00:00;;;;;;;6.20;1.60;;;;;;;;;;5052987;28;20576;-67
2021/05/17 08:02:25;;;;;;;7.25;1.13;;;;;;;;;;5052619;28;20440;-67
2021/05/17 08:04:51;;;;;;;4.65;0.85;;;;;;;;;;5044658;28;20036;-67
2021/05/17 08:07:17;;;;;;;5.28;1.13;;;;;;;;;;5051681;28;20041;-67
2021/05/17 08:09:42;;;;;;;5.78;1.30;;;;;;;;;;5051992;28;20496;-67
2021/05/17 08:12:08;;;;;;;7.78;1.50;;;;;;;;;;5050951;28;20037;-67
2021/05/17 08:14:33;;;;;;;12.63;1.13;;;;;;;;;;5051283;28;20033;-67
2021/05/17 08:17:01;;;;;;;8.10;1.40;;;;;;;;;;5051548;28;20064;-67
2021/05/17 08:19:26;;;;;;;2.97;0.90;;;;;;;;;;5051236;28;20108;-67
2021/05/17 08:21:51;;;;;;;4.78;1.48;;;;;;;;;;5052251;28;20143;-67
2021/05/17 08:24:17;;;;;;;4.47;1.65;;;;;;;;;;5050952;28;20032;-67
2021/05/17 08:26:42;;;;;;;11.70;1.48;;;;;;;;;;5051021;28;20029;-67
2021/05/17 08:29:07;;;;;;;7.55;1.45;;;;;;;;;;5051413;28;20172;-67
2021/05/17 08:31:33;;;;;;;3.42;1.40;;;;;;;;;;5052183;28;20039;-67
2021/05/17 08:33:59;;;;;;;5.18;1.50;;;;;;;;;;5051013;28;20461;-67
2021/05/17 08:36:24;;;;;;;5.72;1.45;;;;;;;;;;5051431;28;20363;-68
2021/05/17 08:38:50;;;;;;;7.00;1.23;;;;;;;;;;5051698;28;20017;-67
2021/05/17 08:41:15;;;;;;;4.57;1.40;;;;;;;;;;5053407;28;20081;-68
2021/05/17 08:43:41;;;;;;;4.88;1.13;;;;;;;;;;5052961;28;20355;-68
2021/05/17 08:46:09;;;;;;;2.17;1.02;;;;;;;;;;5046608;28;20025;-65
2021/05/17 08:48:37;;;;;;;3.17;0.88;;;;;;;;;;5048235;28;20513;-66
2021/05/17 08:51:03;;;;;;;3.63;0.90;;;;;;;;;;5050915;28;20045;-66
2021/05/17 08:53:28;;;;;;;2.67;1.05;;;;;;;;;;5051556;28;20027;-66
2021/05/17 08:55:54;;;;;;;2.47;0.77;;;;;;;;;;5051822;28;20556;-65
2021/05/17 08:58:20;;;;;;;2.95;0.90;;;;;;;;;;5051456;28;20025;-65
2021/05/17 09:00:46;;;;;;;3.58;1.10;;;;;;;;;;5051437;28;20028;-65
2021/05/17 09:03:12;;;;;;;3.20;1.00;;;;;;;;;;5051412;28;20037;-65
2021/05/17 09:05:37;;;;;;;7.75;1.25;;;;;;;;;;5052065;28;20058;-65
2021/05/17 09:08:04;;;;;;;4.35;1.05;;;;;;;;;;5051314;28;20412;-65
2021/05/17 09:10:38;;;;;;;3.80;0.80;;;;;;;;;;5051354;28;20501;-65
2021/05/17 09:13:08;;;;;;;4.88;1.30;;;;;;;;;;5043783;28;20115;-65
2021/05/17 09:15:35;;;;;;;3.28;1.00;;;;;;;;;;5047584;28;20153;-65
2021/05/17 09:18:02;;;;;;;5.15;1.00;;;;;;;;;;5050410;28;20032;-67
2021/05/17 09:20:37;;;;;;;2.47;1.00;;;;;;;;;;5049661;28;20069;-68
2021/05/17 09:23:07;;;;;;;3.75;0.90;;;;;;;;;;5049261;28;20040;-67
2021/05/17 09:25:32;;;;;;;5.32;1.35;;;;;;;;;;5050646;28;20104;-67
2021/05/17 09:28:01;;;;;;;4.80;1.23;;;;;;;;;;5050390;28;20555;-67
2021/05/17 09:30:43;;;;;;;3.90;1.25;;;;;;;;;;5049969;28;20033;-67
2021/05/17 09:33:12;;;;;;;5.75;1.67;;;;;;;;;;5049635;28;20029;-67
2021/05/17 09:35:38;;;;;;;2.78;1.20;;;;;;;;;;5050343;28;20115;-67
2021/05/17 09:38:06;;;;;;;3.00;1.00;;;;;;;;;;5042971;28;20052;-67
2021/05/17 09:40:32;;;;;;;1.95;1.02;;;;;;;;;;5034663;28;20116;-67
2021/05/17 09:43:05;;;;;;;2.90;1.20;;;;;;;;;;5050317;28;20387;-67
2021/05/17 09:45:31;;;;;;;2.85;1.17;;;;;;;;;;5050418;28;20473;-67
2021/05/17 09:47:57;;;;;;;3.78;1.50;;;;;;;;;;5050354;28;20028;-67
2021/05/17 09:50:22;;;;;;;4.43;1.40;;;;;;;;;;5050036;28;20041;-67
2021/05/17 09:52:47;;;;;;;7.13;1.35;;;;;;;;;;5049400;28;20048;-68
2021/05/17 09:55:13;;;;;;;4.20;1.45;;;;;;;;;;5048718;28;20034;-67
2021/05/17 09:57:46;;;;;;;3.47;1.50;;;;;;;;;;5050180;28;20033;-67
2021/05/17 10:00:21;;;;;;;4.17;1.57;;;;;;;;;;5050528;28;20033;-67
2021/05/17 10:02:51;;;;;;;4.47;1.50;;;;;;;;;;5049121;28;20253;-66
2021/05/17 10:05:19;;;;;;;5.00;1.17;;;;;;;;;;5050350;28;20029;-66
2021/05/17 10:07:45;;;;;;;4.18;1.05;;;;;;;;;;5050018;28;20024;-65
2021/05/17 10:10:11;;;;;;;3.60;1.48;;;;;;;;;;5049368;28;20134;-65
2021/05/17 10:12:37;;;;;;;3.63;1.38;;;;;;;;;;5050161;28;20033;-65
2021/05/17 10:15:04;;;;;;;2.58;1.05;;;;;;;;;;5050135;28;20021;-65
2021/05/17 10:17:30;;;;;;;4.10;1.20;;;;;;;;;;5049603;28;20103;-65
2021/05/17 10:19:55;;;;;;;2.70;1.05;;;;;;;;;;5049569;28;20533;-65
2021/05/17 10:22:21;;;;;;;4.53;1.50;;;;;;;;;;5049712;28;20020;-67
2021/05/17 10:24:46;;;;;;;4.68;1.30;;;;;;;;;;5048725;28;20025;-66
2021/05/17 10:27:12;;;;;;;5.10;1.25;;;;;;;;;;5049797;28;20087;-67
2021/05/17 10:29:38;;;;;;;5.65;1.10;;;;;;;;;;5049911;28;20029;-67
2021/05/17 10:32:06;;;;;;;3.42;1.13;;;;;;;;;;5049246;28;20484;-67
2021/05/17 10:34:31;;;;;;;2.53;1.25;;;;;;;;;;5049301;28;20126;-67
2021/05/17 10:36:59;;;;;;;2.88;1.40;;;;;;;;;;5048397;28;20056;-66
2021/05/17 10:39:32;;;;;;;4.20;1.27;;;;;;;;;;5049744;28;20132;-66
2021/05/17 10:47:48;;;;;;;4.47;1.40;;;;;;;;;;5040881;28;20452;-67
2021/05/17 10:50:18;;;;;;;5.88;1.85;;;;;;;;;;5048827;28;20029;-66
2021/05/17 10:52:43;;;;;;;4.45;1.65;;;;;;;;;;5048481;28;20374;-66
2021/05/17 10:55:10;;;;;;;4.20;1.50;;;;;;;;;;5048685;28;20032;-66
2021/05/17 10:57:46;;;;;;;2.88;1.58;;;;;;;;;;5048652;28;20057;-66
2021/05/17 11:00:22;;;;;;;4.00;1.52;;;;;;;;;;5048475;28;20474;-66
2021/05/17 11:02:49;;;;;;;4.40;1.45;;;;;;;;;;5048541;28;20013;-66
2021/05/17 11:05:19;;;;;;;2.60;1.50;;;;;;;;;;5048805;28;20116;-66
2021/05/17 11:07:44;;;;;;;2.47;1.52;;;;;;;;;;5048845;28;20025;-66
2021/05/17 11:10:14;;;;;;;3.80;1.50;;;;;;;;;;5048676;28;20119;-66
2021/05/17 11:12:40;;;;;;;3.30;1.50;;;;;;;;;;5048903;28;20064;-66
2021/05/17 11:15:10;;;;;;;2.72;1.50;;;;;;;;;;5049314;28;20056;-66
2021/05/17 11:17:54;;;;;;;2.78;1.20;;;;;;;;;;5047708;28;20025;-66
2021/05/17 11:20:37;;;;;;;5.10;1.60;;;;;;;;;;5052878;28;20033;-66
2021/05/17 11:23:03;;;;;;;3.03;1.38;;;;;;;;;;5052311;28;20065;-66
2021/05/17 11:25:49;;;;;;;3.53;1.50;;;;;;;;;;5052440;28;20061;-66
2021/05/17 11:28:15;;;;;;;5.63;1.45;;;;;;;;;;5051702;28;20104;-66
2021/05/17 11:30:42;;;;;;;2.88;1.33;;;;;;;;;;5052627;28;20401;-66
2021/05/17 11:33:11;;;;;;;4.45;1.58;;;;;;;;;;5051962;28;20013;-66
2021/05/17 11:35:37;;;;;;;4.20;1.20;;;;;;;;;;5051796;28;20060;-66
2021/05/17 11:38:05;;;;;;;5.93;1.55;;;;;;;;;;5052463;28;20056;-67
2021/05/17 11:40:31;;;;;;;2.90;1.33;;;;;;;;;;5052108;28;20099;-66
2021/05/17 11:42:57;;;;;;;8.48;1.58;;;;;;;;;;5052260;28;20021;-66
2021/05/17 11:45:24;;;;;;;5.65;1.30;;;;;;;;;;5053611;28;20040;-66
2021/05/17 11:47:51;;;;;;;4.63;1.15;;;;;;;;;;5052978;28;20053;-66
2021/05/17 11:50:16;;;;;;;2.13;1.20;;;;;;;;;;5048630;28;20653;-66
2021/05/17 11:52:45;;;;;;;2.47;1.17;;;;;;;;;;5051681;28;20057;-66
2021/05/17 11:55:11;;;;;;;4.97;1.38;;;;;;;;;;5052098;28;20017;-67
2021/05/17 11:57:37;;;;;;;3.67;1.38;;;;;;;;;;5052391;28;20027;-66
2021/05/17 12:00:05;;;;;;;6.32;1.42;;;;;;;;;;5051169;28;20056;-66
2021/05/17 12:02:31;;;;;;;4.30;1.60;;;;;;;;;;5051639;28;20021;-66
2021/05/17 12:04:57;;;;;;;2.92;1.30;;;;;;;;;;5052353;28;20370;-66
2021/05/17 12:07:22;;;;;;;4.65;1.50;;;;;;;;;;5052091;28;20037;-66
2021/05/17 12:09:47;;;;;;;3.08;1.35;;;;;;;;;;5050440;28;20480;-66
2021/05/17 12:12:13;;;;;;;8.45;1.67;;;;;;;;;;5050107;28;20044;-66
2021/05/17 12:14:39;;;;;;;6.43;1.40;;;;;;;;;;5051301;28;20059;-66
2021/05/17 12:17:05;;;;;;;4.00;1.30;;;;;;;;;;5052628;28;20078;-66
2021/05/17 12:19:30;;;;;;;5.88;1.30;;;;;;;;;;5052465;28;20029;-66
2021/05/17 12:21:56;;;;;;;3.90;1.45;;;;;;;;;;5051495;28;20109;-66
2021/05/17 12:24:26;;;;;;;3.17;1.67;;;;;;;;;;5052226;28;20017;-66
2021/05/17 12:26:59;;;;;;;5.35;1.58;;;;;;;;;;5051908;28;20017;-66
2021/05/17 12:29:25;;;;;;;3.25;1.42;;;;;;;;;;5050967;28;20052;-66
2021/05/17 12:31:51;;;;;;;3.55;1.63;;;;;;;;;;5052192;28;20420;-66
2021/05/17 12:34:17;;;;;;;4.03;1.52;;;;;;;;;;5051843;28;20035;-66
2021/05/17 12:36:42;;;;;;;3.70;1.60;;;;;;;;;;5052165;28;20029;-66
2021/05/17 12:39:17;;;;;;;3.00;1.60;;;;;;;;;;5052025;28;20101;-66
2021/05/17 12:41:43;;;;;;;2.90;1.50;;;;;;;;;;5051973;28;20456;-67
2021/05/17 12:44:31;;;;;;;2.58;1.35;;;;;;;;;;5051706;28;20037;-67
2021/05/17 12:47:04;;;;;;;3.38;1.50;;;;;;;;;;5051930;28;20082;-66
2021/05/17 12:49:46;;;;;;;3.05;1.23;;;;;;;;;;5051499;28;20516;-67
2021/05/17 12:52:11;;;;;;;3.65;1.40;;;;;;;;;;5051262;28;20032;-66
2021/05/17 12:54:37;;;;;;;4.70;1.10;;;;;;;;;;5051541;28;20068;-66
2021/05/17 12:57:08;;;;;;;3.13;1.27;;;;;;;;;;5051736;28;20494;-66
2021/05/17 12:59:43;;;;;;;2.38;1.35;;;;;;;;;;5051406;28;20032;-66
2021/05/17 13:02:09;;;;;;;2.88;1.20;;;;;;;;;;5051636;28;20037;-66
2021/05/17 13:04:35;;;;;;;1.95;0.95;;;;;;;;;;5050857;28;20542;-66
2021/05/17 13:07:02;;;;;;;3.80;1.40;;;;;;;;;;5051545;28;20112;-67
2021/05/17 13:09:28;;;;;;;2.22;0.85;;;;;;;;;;5051918;28;20393;-67
2021/05/17 13:11:55;;;;;;;2.17;1.00;;;;;;;;;;5051512;28;20036;-67
2021/05/17 13:14:21;;;;;;;2.15;1.00;;;;;;;;;;5051340;28;20065;-67
2021/05/17 13:16:52;;;;;;;4.07;1.20;;;;;;;;;;5050078;28;20347;-67
2021/05/17 13:30:29;;;;;;;1.13;0.60;;;;;;;;;;5068039;28;20051;-67
2021/05/17 13:32:56;;;;;;;1.65;0.70;;;;;;;;;;5056303;28;20052;-67
2021/05/17 13:35:21;;;;;;;2.05;0.70;;;;;;;;;;5050113;28;20024;-67
2021/05/17 13:37:46;;;;;;;1.73;0.60;;;;;;;;;;5049743;28;20393;-67
2021/05/17 13:40:12;;;;;;;4.53;0.68;;;;;;;;;;5049852;28;20049;-67
2021/05/17 13:42:38;;;;;;;3.92;0.63;;;;;;;;;;5050491;28;20029;-67
2021/05/17 13:45:04;;;;;;;1.27;0.60;;;;;;;;;;5050219;28;20025;-67
2021/05/17 13:47:30;;;;;;;1.15;0.60;;;;;;;;;;5049961;28;20428;-67
2021/05/17 13:49:55;;;;;;;1.10;0.47;;;;;;;;;;5049859;28;20045;-67
2021/05/17 13:52:21;;;;;;;1.40;0.70;;;;;;;;;;5050613;28;20044;-67
2021/05/17 13:54:46;;;;;;;1.40;0.63;;;;;;;;;;5050323;28;20055;-67
2021/05/17 13:57:12;;;;;;;1.58;0.60;;;;;;;;;;5050280;28;20033;-67
2021/05/17 13:59:37;;;;;;;1.15;0.60;;;;;;;;;;5049326;28;20017;-67
2021/05/17 14:02:06;;;;;;;1.55;0.63;;;;;;;;;;5049832;28;20029;-67
2021/05/17 14:04:31;;;;;;;2.08;0.45;;;;;;;;;;5049790;28;20314;-67
2021/05/17 14:06:57;;;;;;;1.80;0.55;;;;;;;;;;5050102;28;20021;-67
2021/05/17 14:09:22;;;;;;;2.28;0.60;;;;;;;;;;5049263;28;20118;-67
2021/05/17 14:11:49;;;;;;;2.97;0.60;;;;;;;;;;5049282;28;20112;-67
2021/05/17 14:14:14;;;;;;;1.10;0.55;;;;;;;;;;5049125;28;20021;-67
2021/05/17 14:16:40;;;;;;;2.25;0.52;;;;;;;;;;5049200;28;20449;-66
2021/05/17 14:19:05;;;;;;;3.30;0.73;;;;;;;;;;5049436;28;20147;-66
2021/05/17 14:21:31;;;;;;;1.55;0.60;;;;;;;;;;5049086;28;20078;-66
2021/05/17 14:23:56;;;;;;;3.65;0.80;;;;;;;;;;5049044;28;20087;-67
2021/05/17 14:26:21;;;;;;;1.60;0.70;;;;;;;;;;5048053;28;20037;-67
2021/05/17 14:28:47;;;;;;;2.03;0.65;;;;;;;;;;5049284;28;20043;-67
2021/05/17 14:31:15;;;;;;;2.25;0.60;;;;;;;;;;5049276;28;20130;-66
2021/05/17 14:33:40;;;;;;;0.40;0.40;;;;;;;;;;5049720;28;20033;-67
2021/05/17 14:36:05;;;;;;;3.30;0.70;;;;;;;;;;5049458;28;20023;-67
2021/05/17 14:38:31;;;;;;;3.03;0.57;;;;;;;;;;5048836;28;20417;-67
2021/05/17 14:40:56;;;;;;;1.73;0.60;;;;;;;;;;5049037;28;20116;-67
2021/05/17 14:43:22;;;;;;;0.55;0.45;;;;;;;;;;5048021;28;20021;-67
2021/05/17 14:45:49;;;;;;;3.38;0.73;;;;;;;;;;5050137;28;20029;-66
2021/05/17 14:48:15;;;;;;;3.00;0.40;;;;;;;;;;5050456;28;20079;-67
2021/05/17 14:50:40;;;;;;;2.42;0.60;;;;;;;;;;5049609;28;20064;-67
2021/05/17 14:53:06;;;;;;;0.82;0.50;;;;;;;;;;5052751;28;20079;-67
2021/05/17 14:55:31;;;;;;;2.70;0.65;;;;;;;;;;5053273;28;20116;-67
2021/05/17 14:57:57;;;;;;;1.70;0.55;;;;;;;;;;5053404;28;20021;-66
2021/05/17 15:00:23;;;;;;;1.25;0.60;;;;;;;;;;5054491;28;20064;-67
2021/05/17 15:02:48;;;;;;;1.20;0.70;;;;;;;;;;5053869;28;20025;-67
2021/05/17 15:05:15;;;;;;;1.83;0.60;;;;;;;;;;5053590;28;20016;-67
2021/05/17 15:07:40;;;;;;;2.33;0.70;;;;;;;;;;5053823;28;20037;-67
2021/05/17 15:10:06;;;;;;;4.72;0.68;;;;;;;;;;5053909;28;20450;-67
2021/05/17 15:12:31;;;;;;;4.25;0.82;;;;;;;;;;5053258;28;20393;-67
2021/05/17 15:14:57;;;;;;;2.50;0.80;;;;;;;;;;5053736;28;20025;-67